createdAt,value
2023-04-10T00:01:18.196Z,100.00
2023-04-10T00:02:21.852Z,100.00
2023-04-10T00:03:25.910Z,100.00
2023-04-10T00:04:29.961Z,100.00
2023-04-10T00:05:34.453Z,100.00
2023-04-10T00:06:37.863Z,100.00
2023-04-10T00:07:41.363Z,100.00
2023-04-10T00:08:45.077Z,100.00
2023-04-10T00:09:48.599Z,100.00
2023-04-10T00:10:52.297Z,100.00
2023-04-10T00:11:57.678Z,100.00
2023-04-10T00:13:01.622Z,100.00
2023-04-10T00:14:05.931Z,100.00
2023-04-10T00:15:09.686Z,100.00
2023-04-10T00:16:11.956Z,100.00
2023-04-10T00:17:16.454Z,100.00
2023-04-10T00:18:19.856Z,100.00
2023-04-10T00:19:22.009Z,100.00
2023-04-10T00:20:26.974Z,100.00
2023-04-10T00:21:30.465Z,100.00
2023-04-10T00:22:33.974Z,100.00
2023-04-10T00:23:38.217Z,100.00
2023-04-10T00:24:41.766Z,100.00
2023-04-10T00:25:45.540Z,100.00
2023-04-10T00:26:49.147Z,100.00
2023-04-10T00:27:53.582Z,100.00
2023-04-10T00:28:56.168Z,100.00
2023-04-10T00:29:59.520Z,100.00
2023-04-10T00:31:02.679Z,100.00
2023-04-10T00:32:05.966Z,100.00
2023-04-10T00:33:09.730Z,100.00
2023-04-10T00:34:17.027Z,100.00
2023-04-10T00:35:20.659Z,100.00
2023-04-10T00:36:25.565Z,100.00
2023-04-10T00:37:29.434Z,100.00
2023-04-10T00:38:35.535Z,100.00
2023-04-10T00:39:38.756Z,100.00
2023-04-10T00:40:42.120Z,100.00
2023-04-10T00:41:44.896Z,100.00
2023-04-10T00:42:47.366Z,100.00
2023-04-10T00:43:51.503Z,100.00
2023-04-10T00:44:55.627Z,100.00
2023-04-10T00:45:59.680Z,100.00
2023-04-10T00:47:05.760Z,100.00
2023-04-10T00:48:09.077Z,100.00
2023-04-10T00:49:12.682Z,100.00
2023-04-10T00:50:16.380Z,100.00
2023-04-10T00:51:20.519Z,100.00
2023-04-10T00:52:25.167Z,100.00
2023-04-10T00:53:30.266Z,100.00
2023-04-10T00:54:34.369Z,100.00
2023-04-10T00:55:37.897Z,100.00
2023-04-10T00:56:41.172Z,100.00
2023-04-10T00:57:47.093Z,100.00
2023-04-10T00:58:50.270Z,100.00
2023-04-10T00:59:53.391Z,100.00
2023-04-10T01:01:00.377Z,100.00
2023-04-10T01:02:04.171Z,100.00
2023-04-10T01:03:09.991Z,100.00
2023-04-10T01:04:15.170Z,100.00
2023-04-10T01:05:18.717Z,100.00
2023-04-10T01:06:29.559Z,100.00
2023-04-10T01:07:35.762Z,100.00
2023-04-10T01:08:56.501Z,100.00
2023-04-10T01:10:07.840Z,100.00
2023-04-10T01:11:12.168Z,100.00
2023-04-10T01:12:21.009Z,100.00
2023-04-10T01:13:29.320Z,100.00
2023-04-10T01:14:51.626Z,100.00
2023-04-10T01:15:56.477Z,100.00
2023-04-10T01:17:05.029Z,100.00
2023-04-10T01:18:16.232Z,100.00
2023-04-10T01:19:38.552Z,100.00
2023-04-10T01:20:41.633Z,100.00
2023-04-10T01:21:46.080Z,100.00
2023-04-10T01:23:09.215Z,100.00
2023-04-10T01:24:17.788Z,100.00
2023-04-10T01:25:42.171Z,100.00
2023-04-10T01:27:07.663Z,100.00
2023-04-10T01:28:15.244Z,100.00
2023-04-10T01:29:20.708Z,100.00
2023-04-10T01:30:25.274Z,100.00
2023-04-10T01:31:45.847Z,100.00
2023-04-10T01:32:48.528Z,100.00
2023-04-10T01:33:57.577Z,100.00
2023-04-10T01:35:03.023Z,100.00
2023-04-10T01:36:08.472Z,100.00
2023-04-10T01:37:12.749Z,100.00
2023-04-10T01:38:17.574Z,100.00
2023-04-10T01:39:23.292Z,100.00
2023-04-10T01:40:27.886Z,100.00
2023-04-10T01:41:32.087Z,100.00
2023-04-10T01:42:36.531Z,100.00
2023-04-10T01:43:42.763Z,100.00
2023-04-10T01:44:47.930Z,100.00
2023-04-10T01:45:52.819Z,100.00
2023-04-10T01:46:56.963Z,100.00
2023-04-10T01:48:00.561Z,100.00
2023-04-10T01:49:03.947Z,100.00
2023-04-10T01:50:07.681Z,100.00
2023-04-10T01:51:12.000Z,100.00
2023-04-10T01:52:16.679Z,100.00
2023-04-10T01:53:23.510Z,100.00
2023-04-10T01:54:29.372Z,100.00
2023-04-10T01:55:35.420Z,100.00
2023-04-10T01:56:45.097Z,100.00
2023-04-10T01:57:49.884Z,100.00
2023-04-10T01:58:54.498Z,100.00
2023-04-10T01:59:59.466Z,100.00
2023-04-10T02:01:02.702Z,100.00
2023-04-10T02:02:07.543Z,100.00
2023-04-10T02:03:12.192Z,100.00
2023-04-10T02:04:18.671Z,100.00
2023-04-10T02:05:24.303Z,100.00
2023-04-10T02:06:32.835Z,100.00
2023-04-10T02:07:44.079Z,100.00
2023-04-10T02:08:49.441Z,100.00
2023-04-10T02:10:09.976Z,100.00
2023-04-10T02:11:15.141Z,100.00
2023-04-10T02:12:23.902Z,100.00
2023-04-10T02:13:28.730Z,100.00
2023-04-10T02:14:33.837Z,100.00
2023-04-10T02:15:36.760Z,100.00
2023-04-10T02:16:40.486Z,100.00
2023-04-10T02:17:44.664Z,100.00
2023-04-10T02:18:48.975Z,100.00
2023-04-10T02:19:54.047Z,100.00
2023-04-10T02:20:57.856Z,100.00
2023-04-10T02:22:00.315Z,100.00
2023-04-10T02:23:04.346Z,100.00
2023-04-10T02:24:07.858Z,100.00
2023-04-10T02:25:10.317Z,100.00
2023-04-10T02:26:13.825Z,100.00
2023-04-10T02:27:21.261Z,100.00
2023-04-10T02:28:24.804Z,100.00
2023-04-10T02:29:28.308Z,100.00
2023-04-10T02:30:30.866Z,100.00
2023-04-10T02:31:35.510Z,100.00
2023-04-10T02:32:39.735Z,100.00
2023-04-10T02:33:44.940Z,100.00
2023-04-10T02:34:48.345Z,100.00
2023-04-10T02:35:52.652Z,100.00
2023-04-10T02:36:56.945Z,100.00
2023-04-10T02:38:00.132Z,100.00
2023-04-10T02:39:04.864Z,100.00
2023-04-10T02:40:10.346Z,100.00
2023-04-10T02:41:15.423Z,100.00
2023-04-10T02:42:18.826Z,100.00
2023-04-10T02:43:23.069Z,100.00
2023-04-10T02:44:27.224Z,100.00
2023-04-10T02:45:30.081Z,100.00
2023-04-10T02:46:35.071Z,100.00
2023-04-10T02:47:38.789Z,100.00
2023-04-10T02:48:42.263Z,100.00
2023-04-10T02:49:44.815Z,100.00
2023-04-10T02:50:54.794Z,100.00
2023-04-10T02:51:59.877Z,100.00
2023-04-10T02:53:04.846Z,100.00
2023-04-10T02:54:08.278Z,100.00
2023-04-10T02:55:12.680Z,100.00
2023-04-10T02:56:17.430Z,100.00
2023-04-10T02:57:22.125Z,100.00
2023-04-10T02:58:24.382Z,100.00
2023-04-10T02:59:28.828Z,100.00
2023-04-10T03:00:31.329Z,100.00
2023-04-10T03:01:52.932Z,100.00
2023-04-10T03:02:56.863Z,100.00
2023-04-10T03:04:01.573Z,100.00
2023-04-10T03:05:09.142Z,100.00
2023-04-10T03:06:11.856Z,100.00
2023-04-10T03:07:20.053Z,100.00
2023-04-10T03:08:25.028Z,100.00
2023-04-10T03:09:27.406Z,100.00
2023-04-10T03:10:30.786Z,100.00
2023-04-10T03:11:36.380Z,100.00
2023-04-10T03:12:39.917Z,100.00
2023-04-10T03:13:42.467Z,100.00
2023-04-10T03:14:47.848Z,100.00
2023-04-10T03:15:51.501Z,100.00
2023-04-10T03:16:54.997Z,100.00
2023-04-10T03:17:59.373Z,100.00
2023-04-10T03:19:04.997Z,100.00
2023-04-10T03:20:08.400Z,100.00
2023-04-10T03:21:13.573Z,100.00
2023-04-10T03:22:18.752Z,100.00
2023-04-10T03:23:22.777Z,100.00
2023-04-10T03:24:26.595Z,100.00
2023-04-10T03:25:29.957Z,100.00
2023-04-10T03:26:33.507Z,100.00
2023-04-10T03:27:37.319Z,100.00
2023-04-10T03:28:43.341Z,100.00
2023-04-10T03:29:47.254Z,100.00
2023-04-10T03:30:50.237Z,100.00
2023-04-10T03:31:52.514Z,100.00
2023-04-10T03:32:56.201Z,100.00
2023-04-10T03:33:59.903Z,100.00
2023-04-10T03:35:03.543Z,100.00
2023-04-10T03:36:12.150Z,100.00
2023-04-10T03:37:15.658Z,100.00
2023-04-10T03:38:21.550Z,100.00
2023-04-10T03:39:26.731Z,100.00
2023-04-10T03:40:30.764Z,100.00
2023-04-10T03:41:34.374Z,100.00
2023-04-10T03:42:38.953Z,100.00
2023-04-10T03:43:43.649Z,100.00
2023-04-10T03:44:47.199Z,100.00
2023-04-10T03:45:49.702Z,100.00
2023-04-10T03:46:54.158Z,100.00
2023-04-10T03:47:59.957Z,100.00
2023-04-10T03:49:03.299Z,100.00
2023-04-10T03:50:08.353Z,100.00
2023-04-10T03:51:13.510Z,100.00
2023-04-10T03:52:17.151Z,100.00
2023-04-10T03:53:22.752Z,100.00
2023-04-10T03:54:26.888Z,100.00
2023-04-10T03:55:32.499Z,100.00
2023-04-10T03:56:35.975Z,100.00
2023-04-10T03:57:39.479Z,100.00
2023-04-10T03:58:43.720Z,100.00
2023-04-10T03:59:47.940Z,100.00
2023-04-10T04:00:51.144Z,100.00
2023-04-10T04:01:56.411Z,100.00
2023-04-10T04:03:02.826Z,100.00
2023-04-10T04:04:26.619Z,100.00
2023-04-10T04:05:35.767Z,100.00
2023-04-10T04:06:42.510Z,100.00
2023-04-10T04:07:53.248Z,100.00
2023-04-10T04:09:00.838Z,100.00
2023-04-10T04:10:18.209Z,100.00
2023-04-10T04:11:29.541Z,100.00
2023-04-10T04:12:34.699Z,100.00
2023-04-10T04:13:43.017Z,100.00
2023-04-10T04:14:48.509Z,100.00
2023-04-10T04:16:05.045Z,100.00
2023-04-10T04:17:13.054Z,100.00
2023-04-10T04:18:18.145Z,100.00
2023-04-10T04:19:23.236Z,100.00
2023-04-10T04:20:27.655Z,100.00
2023-04-10T04:21:49.239Z,100.00
2023-04-10T04:22:58.582Z,100.00
2023-04-10T04:24:13.672Z,100.00
2023-04-10T04:25:37.036Z,100.00
2023-04-10T04:26:57.891Z,100.00
2023-04-10T04:28:19.976Z,100.00
2023-04-10T04:29:30.780Z,100.00
2023-04-10T04:30:36.283Z,100.00
2023-04-10T04:31:47.641Z,100.00
2023-04-10T04:33:11.039Z,100.00
2023-04-10T04:34:27.738Z,100.00
2023-04-10T04:35:43.880Z,100.00
2023-04-10T04:36:49.048Z,100.00
2023-04-10T04:37:54.443Z,100.00
2023-04-10T04:39:04.954Z,100.00
2023-04-10T04:40:16.077Z,100.00
2023-04-10T04:41:38.513Z,100.00
2023-04-10T04:42:59.959Z,100.00
2023-04-10T04:44:23.332Z,100.00
2023-04-10T04:45:31.937Z,100.00
2023-04-10T04:46:44.657Z,100.00
2023-04-10T04:48:07.873Z,100.00
2023-04-10T04:49:22.866Z,100.00
2023-04-10T04:50:29.087Z,100.00
2023-04-10T04:51:34.570Z,100.00
2023-04-10T04:52:41.840Z,100.00
2023-04-10T04:53:52.691Z,100.00
2023-04-10T04:55:14.448Z,100.00
2023-04-10T04:56:22.371Z,100.00
2023-04-10T04:57:27.708Z,100.00
2023-04-10T04:58:32.900Z,100.00
2023-04-10T04:59:57.922Z,100.00
2023-04-10T05:02:32.406Z,100.00
2023-04-10T05:03:54.338Z,100.00
2023-04-10T05:05:10.044Z,100.00
2023-04-10T05:06:19.247Z,100.00
2023-04-10T05:07:24.207Z,100.00
2023-04-10T05:08:29.291Z,100.00
2023-04-10T05:09:45.205Z,100.00
2023-04-10T05:11:08.586Z,100.00
2023-04-10T05:12:18.845Z,100.00
2023-04-10T05:13:24.261Z,100.00
2023-04-10T05:14:29.529Z,100.00
2023-04-10T05:15:34.830Z,100.00
2023-04-10T05:16:42.295Z,100.00
2023-04-10T05:17:53.017Z,100.00
2023-04-10T05:19:15.207Z,100.00
2023-04-10T05:20:33.335Z,100.00
2023-04-10T05:21:57.661Z,100.00
2023-04-10T05:23:21.392Z,100.00
2023-04-10T05:24:36.682Z,100.00
2023-04-10T05:25:48.781Z,100.00
2023-04-10T05:26:53.209Z,100.00
2023-04-10T05:27:58.602Z,100.00
2023-04-10T05:29:11.102Z,100.00
2023-04-10T05:30:33.708Z,100.00
2023-04-10T05:31:55.494Z,100.00
2023-04-10T05:33:16.324Z,100.00
2023-04-10T05:34:28.953Z,100.00
2023-04-10T05:35:47.613Z,100.00
2023-04-10T05:36:59.846Z,100.00
2023-04-10T05:38:05.254Z,100.00
2023-04-10T05:39:22.641Z,100.00
2023-04-10T05:40:38.157Z,100.00
2023-04-10T05:41:45.613Z,100.00
2023-04-10T05:43:06.709Z,100.00
2023-04-10T05:44:14.888Z,100.00
2023-04-10T05:45:35.312Z,100.00
2023-04-10T05:46:40.509Z,100.00
2023-04-10T05:47:46.890Z,100.00
2023-04-10T05:50:10.755Z,100.00
2023-04-10T05:51:29.496Z,100.00
2023-04-10T05:52:52.290Z,100.00
2023-04-10T05:54:00.134Z,100.00
2023-04-10T05:55:07.011Z,100.00
2023-04-10T05:56:15.924Z,100.00
2023-04-10T05:57:37.784Z,100.00
2023-04-10T05:59:02.178Z,100.00
2023-04-10T06:00:16.022Z,100.00
2023-04-10T06:01:22.772Z,100.00
2023-04-10T06:02:28.641Z,100.00
2023-04-10T06:03:31.903Z,100.00
2023-04-10T06:04:37.823Z,100.00
2023-04-10T06:05:42.426Z,100.00
2023-04-10T06:06:46.257Z,100.00
2023-04-10T06:07:49.963Z,100.00
2023-04-10T06:08:54.045Z,100.00
2023-04-10T06:09:58.952Z,100.00
2023-04-10T06:11:02.585Z,100.00
2023-04-10T06:12:06.176Z,100.00
2023-04-10T06:13:10.556Z,100.00
2023-04-10T06:14:16.212Z,100.00
2023-04-10T06:15:20.124Z,100.00
2023-04-10T06:16:23.464Z,100.00
2023-04-10T06:17:27.872Z,100.00
2023-04-10T06:18:33.250Z,100.00
2023-04-10T06:19:36.766Z,100.00
2023-04-10T06:20:40.166Z,100.00
2023-04-10T06:21:43.588Z,100.00
2023-04-10T06:22:48.957Z,100.00
2023-04-10T06:23:52.150Z,100.00
2023-04-10T06:24:57.009Z,100.00
2023-04-10T06:26:04.060Z,100.00
2023-04-10T06:27:07.347Z,100.00
2023-04-10T06:28:11.725Z,100.00
2023-04-10T06:29:16.080Z,100.00
2023-04-10T06:30:19.328Z,100.00
2023-04-10T06:31:23.894Z,100.00
2023-04-10T06:32:26.666Z,100.00
2023-04-10T06:33:29.116Z,100.00
2023-04-10T06:34:33.670Z,100.00
2023-04-10T06:35:42.339Z,100.00
2023-04-10T06:36:47.641Z,100.00
2023-04-10T06:37:52.118Z,100.00
2023-04-10T06:38:56.206Z,100.00
2023-04-10T06:40:04.779Z,100.00
2023-04-10T06:41:08.489Z,100.00
2023-04-10T06:42:11.667Z,100.00
2023-04-10T06:43:20.929Z,100.00
2023-04-10T06:44:24.886Z,100.00
2023-04-10T06:45:28.774Z,100.00
2023-04-10T06:46:32.216Z,100.00
2023-04-10T06:47:36.104Z,100.00
2023-04-10T06:48:39.302Z,100.00
2023-04-10T06:49:43.444Z,100.00
2023-04-10T06:50:46.717Z,100.00
2023-04-10T06:51:50.314Z,100.00
2023-04-10T06:52:57.441Z,100.00
2023-04-10T06:54:00.890Z,100.00
2023-04-10T06:55:03.352Z,100.00
2023-04-10T06:56:07.919Z,100.00
2023-04-10T06:57:11.290Z,100.00
2023-04-10T06:58:15.562Z,100.00
2023-04-10T06:59:18.936Z,100.00
2023-04-10T07:00:21.698Z,100.00
2023-04-10T07:01:26.059Z,100.00
2023-04-10T07:02:29.937Z,100.00
2023-04-10T07:03:33.596Z,100.00
2023-04-10T07:04:37.503Z,100.00
2023-04-10T07:05:42.308Z,100.00
2023-04-10T07:06:45.030Z,100.00
2023-04-10T07:07:48.541Z,100.00
2023-04-10T07:08:52.380Z,100.00
2023-04-10T07:09:56.696Z,100.00
2023-04-10T07:11:00.325Z,100.00
2023-04-10T07:12:04.021Z,100.00
2023-04-10T07:13:07.012Z,100.00
2023-04-10T07:14:10.247Z,100.00
2023-04-10T07:15:13.909Z,100.00
2023-04-10T07:16:17.529Z,100.00
2023-04-10T07:17:21.241Z,100.00
2023-04-10T07:18:24.611Z,100.00
2023-04-10T07:19:28.129Z,100.00
2023-04-10T07:20:30.382Z,100.00
2023-04-10T07:21:34.103Z,100.00
2023-04-10T07:22:37.612Z,100.00
2023-04-10T07:23:42.880Z,100.00
2023-04-10T07:24:47.553Z,100.00
2023-04-10T07:25:53.856Z,100.00
2023-04-10T07:26:58.648Z,100.00
2023-04-10T07:28:02.256Z,100.00
2023-04-10T07:29:05.416Z,100.00
2023-04-10T07:30:08.924Z,100.00
2023-04-10T07:31:11.499Z,100.00
2023-04-10T07:32:14.956Z,100.00
2023-04-10T07:33:17.757Z,100.00
2023-04-10T07:34:21.308Z,100.00
2023-04-10T07:35:24.481Z,100.00
2023-04-10T07:36:30.655Z,100.00
2023-04-10T07:37:34.957Z,100.00
2023-04-10T07:38:38.652Z,100.00
2023-04-10T07:39:42.150Z,100.00
2023-04-10T07:40:45.437Z,100.00
2023-04-10T07:41:48.647Z,100.00
2023-04-10T07:42:54.095Z,100.00
2023-04-10T07:43:56.374Z,100.00
2023-04-10T07:45:00.504Z,100.00
2023-04-10T07:46:04.147Z,100.00
2023-04-10T07:47:09.443Z,100.00
2023-04-10T07:48:12.706Z,100.00
2023-04-10T07:49:15.145Z,100.00
2023-04-10T07:50:18.481Z,100.00
2023-04-10T07:51:22.268Z,100.00
2023-04-10T07:52:25.680Z,100.00
2023-04-10T07:53:29.002Z,100.00
2023-04-10T07:54:34.728Z,100.00
2023-04-10T07:55:39.736Z,100.00
2023-04-10T07:56:43.232Z,100.00
2023-04-10T07:57:47.183Z,100.00
2023-04-10T07:58:50.870Z,100.00
2023-04-10T07:59:54.383Z,100.00
2023-04-10T08:00:59.073Z,100.00
2023-04-10T08:02:02.630Z,100.00
2023-04-10T08:03:10.204Z,100.00
2023-04-10T08:04:18.195Z,100.00
2023-04-10T08:05:22.262Z,100.00
2023-04-10T08:06:28.382Z,100.00
2023-04-10T08:07:32.079Z,100.00
2023-04-10T08:08:38.934Z,100.00
2023-04-10T08:09:42.357Z,100.00
2023-04-10T08:10:59.619Z,100.00
2023-04-10T08:12:01.034Z,100.00
2023-04-10T08:13:06.558Z,100.00
2023-04-10T08:14:10.140Z,100.00
2023-04-10T08:15:12.901Z,100.00
2023-04-10T08:16:16.251Z,100.00
2023-04-10T08:17:19.524Z,100.00
2023-04-10T08:18:22.866Z,100.00
2023-04-10T08:19:26.718Z,100.00
2023-04-10T08:20:30.140Z,100.00
2023-04-10T08:21:33.368Z,100.00
2023-04-10T08:22:39.629Z,100.00
2023-04-10T08:23:43.452Z,100.00
2023-04-10T08:24:46.851Z,100.00
2023-04-10T08:25:50.575Z,100.00
2023-04-10T08:26:52.730Z,100.00
2023-04-10T08:27:58.059Z,100.00
2023-04-10T08:29:02.764Z,100.00
2023-04-10T08:30:06.501Z,100.00
2023-04-10T08:31:11.867Z,100.00
2023-04-10T08:32:15.565Z,100.00
2023-04-10T08:33:18.860Z,100.00
2023-04-10T08:34:23.888Z,100.00
2023-04-10T08:35:28.374Z,100.00
2023-04-10T08:36:31.583Z,100.00
2023-04-10T08:37:36.011Z,100.00
2023-04-10T08:38:41.189Z,100.00
2023-04-10T08:39:44.409Z,100.00
2023-04-10T08:40:48.092Z,100.00
2023-04-10T08:41:52.954Z,100.00
2023-04-10T08:42:56.684Z,100.00
2023-04-10T08:44:00.168Z,100.00
2023-04-10T08:45:04.622Z,100.00
2023-04-10T08:46:07.340Z,100.00
2023-04-10T08:47:11.334Z,100.00
2023-04-10T08:48:17.468Z,100.00
2023-04-10T08:49:33.253Z,100.00
2023-04-10T08:50:38.651Z,100.00
2023-04-10T08:51:45.834Z,100.00
2023-04-10T08:52:50.767Z,100.00
2023-04-10T08:53:55.162Z,100.00
2023-04-10T08:55:00.280Z,100.00
2023-04-10T08:56:04.437Z,100.00
2023-04-10T08:57:10.697Z,100.00
2023-04-10T08:58:15.508Z,100.00
2023-04-10T08:59:20.084Z,100.00
2023-04-10T09:00:26.907Z,100.00
2023-04-10T09:01:30.900Z,100.00
2023-04-10T09:02:38.149Z,100.00
2023-04-10T09:03:43.474Z,100.00
2023-04-10T09:04:51.184Z,100.00
2023-04-10T09:05:56.052Z,100.00
2023-04-10T09:06:59.246Z,100.00
2023-04-10T09:08:05.169Z,100.00
2023-04-10T09:09:08.666Z,100.00
2023-04-10T09:10:11.510Z,100.00
2023-04-10T09:11:19.242Z,100.00
2023-04-10T09:12:24.944Z,100.00
2023-04-10T09:13:41.446Z,100.00
2023-04-10T09:14:46.989Z,100.00
2023-04-10T09:15:51.649Z,100.00
2023-04-10T09:16:55.404Z,100.00
2023-04-10T09:18:03.494Z,100.00
2023-04-10T09:19:07.746Z,100.00
2023-04-10T09:20:13.234Z,100.00
2023-04-10T09:21:17.165Z,100.00
2023-04-10T09:22:22.336Z,100.00
2023-04-10T09:23:25.514Z,100.00
2023-04-10T09:24:28.748Z,100.00
2023-04-10T09:25:37.381Z,100.00
2023-04-10T09:26:42.724Z,100.00
2023-04-10T09:27:46.453Z,100.00
2023-04-10T09:28:59.973Z,100.00
2023-04-10T09:30:03.777Z,100.00
2023-04-10T09:31:09.350Z,100.00
2023-04-10T09:32:12.142Z,100.00
2023-04-10T09:33:23.615Z,100.00
2023-04-10T09:34:29.716Z,100.00
2023-04-10T09:35:39.692Z,100.00
2023-04-10T09:36:47.162Z,100.00
2023-04-10T09:37:50.872Z,100.00
2023-04-10T09:38:56.479Z,100.00
2023-04-10T09:40:01.163Z,100.00
2023-04-10T09:41:08.294Z,100.00
2023-04-10T09:42:15.385Z,100.00
2023-04-10T09:43:27.426Z,100.00
2023-04-10T09:44:35.837Z,100.00
2023-04-10T09:45:48.862Z,100.00
2023-04-10T09:46:52.489Z,100.00
2023-04-10T09:47:58.209Z,100.00
2023-04-10T09:49:08.053Z,100.00
2023-04-10T09:50:11.312Z,100.00
2023-04-10T09:51:31.648Z,100.00
2023-04-10T09:52:39.627Z,100.00
2023-04-10T09:53:53.540Z,100.00
2023-04-10T09:54:59.101Z,100.00
2023-04-10T09:56:03.541Z,100.00
2023-04-10T09:57:09.828Z,100.00
2023-04-10T09:58:13.814Z,100.00
2023-04-10T09:59:21.258Z,100.00
2023-04-10T10:00:27.317Z,100.00
2023-04-10T10:01:32.652Z,100.00
2023-04-10T10:02:37.992Z,100.00
2023-04-10T10:03:42.294Z,100.00
2023-04-10T10:04:47.448Z,100.00
2023-04-10T10:05:52.148Z,100.00
2023-04-10T10:06:55.076Z,100.00
2023-04-10T10:07:58.893Z,100.00
2023-04-10T10:09:07.004Z,100.00
2023-04-10T10:10:12.281Z,100.00
2023-04-10T10:11:19.123Z,100.00
2023-04-10T10:12:25.099Z,100.00
2023-04-10T10:13:39.845Z,100.00
2023-04-10T10:14:45.518Z,100.00
2023-04-10T10:15:51.868Z,100.00
2023-04-10T10:16:57.887Z,100.00
2023-04-10T10:18:05.710Z,100.00
2023-04-10T10:19:13.739Z,100.00
2023-04-10T10:20:17.574Z,100.00
2023-04-10T10:21:21.692Z,100.00
2023-04-10T10:22:26.867Z,100.00
2023-04-10T10:23:31.349Z,100.00
2023-04-10T10:24:35.956Z,100.00
2023-04-10T10:25:38.769Z,100.00
2023-04-10T10:26:44.184Z,100.00
2023-04-10T10:27:50.170Z,100.00
2023-04-10T10:28:54.756Z,100.00
2023-04-10T10:30:03.071Z,100.00
2023-04-10T10:31:06.900Z,100.00
2023-04-10T10:32:12.101Z,100.00
2023-04-10T10:33:15.816Z,100.00
2023-04-10T10:34:20.576Z,100.00
2023-04-10T10:35:26.332Z,100.00
2023-04-10T10:36:30.163Z,100.00
2023-04-10T10:37:33.800Z,100.00
2023-04-10T10:38:38.863Z,100.00
2023-04-10T10:39:43.408Z,100.00
2023-04-10T10:40:55.524Z,100.00
2023-04-10T10:42:11.030Z,100.00
2023-04-10T10:43:19.006Z,100.00
2023-04-10T10:44:36.813Z,100.00
2023-04-10T10:45:47.022Z,100.00
2023-04-10T10:46:55.138Z,100.00
2023-04-10T10:47:58.529Z,100.00
2023-04-10T10:49:02.175Z,100.00
2023-04-10T10:50:06.040Z,100.00
2023-04-10T10:51:10.891Z,100.00
2023-04-10T10:52:14.285Z,100.00
2023-04-10T10:53:25.384Z,100.00
2023-04-10T10:54:32.810Z,100.00
2023-04-10T10:55:36.521Z,100.00
2023-04-10T10:56:39.176Z,100.00
2023-04-10T10:57:49.866Z,100.00
2023-04-10T10:58:54.395Z,100.00
2023-04-10T11:00:02.324Z,100.00
2023-04-10T11:01:08.436Z,100.00
2023-04-10T11:02:18.275Z,100.00
2023-04-10T11:03:23.932Z,100.00
2023-04-10T11:04:43.946Z,100.00
2023-04-10T11:05:55.790Z,100.00
2023-04-10T11:06:59.106Z,100.00
2023-04-10T11:08:03.744Z,100.00
2023-04-10T11:09:06.241Z,100.00
2023-04-10T11:10:11.105Z,100.00
2023-04-10T11:11:23.969Z,100.00
2023-04-10T11:12:26.618Z,100.00
2023-04-10T11:13:30.169Z,100.00
2023-04-10T11:14:33.557Z,100.00
2023-04-10T11:15:36.519Z,100.00
2023-04-10T11:16:45.110Z,100.00
2023-04-10T11:17:53.818Z,100.00
2023-04-10T11:19:15.390Z,100.00
2023-04-10T11:20:14.836Z,100.00
2023-04-10T11:21:22.061Z,100.00
2023-04-10T11:22:24.708Z,100.00
2023-04-10T11:23:29.588Z,100.00
2023-04-10T11:24:51.992Z,100.00
2023-04-10T11:25:56.254Z,100.00
2023-04-10T11:27:01.325Z,100.00
2023-04-10T11:28:08.290Z,100.00
2023-04-10T11:29:17.522Z,100.00
2023-04-10T11:30:29.907Z,100.00
2023-04-10T11:31:34.368Z,100.00
2023-04-10T11:32:42.840Z,100.00
2023-04-10T11:33:46.882Z,100.00
2023-04-10T11:34:51.020Z,100.00
2023-04-10T11:35:56.483Z,100.00
2023-04-10T11:37:02.820Z,100.00
2023-04-10T11:38:10.804Z,100.00
2023-04-10T11:39:15.408Z,100.00
2023-04-10T11:40:20.432Z,100.00
2023-04-10T11:41:31.075Z,98.83
2023-04-10T11:42:34.550Z,97.17
2023-04-10T11:43:40.066Z,95.87
2023-04-10T11:44:48.742Z,94.08
2023-04-10T11:45:49.989Z,97.75
2023-04-10T11:46:52.839Z,100.00
2023-04-10T11:47:56.477Z,100.00
2023-04-10T11:48:59.861Z,99.49
2023-04-10T11:50:03.942Z,100.00
2023-04-10T11:51:08.542Z,100.00
2023-04-10T11:52:11.938Z,100.00
2023-04-10T11:53:19.401Z,100.00
2023-04-10T11:54:24.683Z,100.00
2023-04-10T11:55:38.647Z,98.76
2023-04-10T11:56:43.107Z,100.00
2023-04-10T11:57:46.410Z,98.43
2023-04-10T11:58:50.197Z,98.66
2023-04-10T11:59:53.497Z,100.00
2023-04-10T12:00:59.082Z,100.00
2023-04-10T12:02:08.476Z,98.71
2023-04-10T12:03:12.610Z,99.77
2023-04-10T12:04:17.618Z,98.72
2023-04-10T12:05:20.480Z,98.45
2023-04-10T12:06:25.002Z,92.90
2023-04-10T12:07:33.177Z,93.62
2023-04-10T12:08:37.610Z,93.18
2023-04-10T12:09:41.361Z,92.98
2023-04-10T12:10:45.146Z,93.78
2023-04-10T12:11:54.473Z,91.60
2023-04-10T12:13:00.524Z,92.32
2023-04-10T12:14:04.012Z,89.04
2023-04-10T12:15:28.107Z,89.40
2023-04-10T12:16:34.414Z,87.79
2023-04-10T12:17:37.446Z,88.64
2023-04-10T12:18:40.190Z,88.98
2023-04-10T12:19:42.946Z,94.46
2023-04-10T12:20:46.141Z,88.07
2023-04-10T12:21:49.705Z,90.60
2023-04-10T12:22:54.693Z,90.75
2023-04-10T12:23:56.644Z,88.83
2023-04-10T12:25:02.779Z,89.32
2023-04-10T12:26:08.480Z,89.25
2023-04-10T12:27:18.687Z,89.11
2023-04-10T12:28:22.809Z,89.92
2023-04-10T12:29:29.448Z,88.55
2023-04-10T12:30:34.408Z,90.37
2023-04-10T12:31:37.395Z,91.04
2023-04-10T12:32:40.320Z,89.95
2023-04-10T12:33:47.572Z,89.75
2023-04-10T12:34:56.056Z,93.62
2023-04-10T12:35:59.198Z,93.16
2023-04-10T12:37:06.821Z,95.02
2023-04-10T12:38:10.123Z,94.46
2023-04-10T12:39:20.505Z,93.30
2023-04-10T12:40:23.912Z,95.11
2023-04-10T12:41:29.950Z,94.41
2023-04-10T12:42:40.225Z,94.32
2023-04-10T12:43:44.258Z,94.49
2023-04-10T12:44:53.298Z,94.80
2023-04-10T12:45:56.993Z,94.36
2023-04-10T12:47:02.086Z,94.22
2023-04-10T12:48:05.591Z,98.26
2023-04-10T12:49:14.595Z,94.83
2023-04-10T12:50:19.847Z,94.90
2023-04-10T12:51:36.791Z,97.08
2023-04-10T12:52:42.068Z,96.45
2023-04-10T12:53:46.710Z,95.90
2023-04-10T12:54:48.961Z,98.60
2023-04-10T12:56:01.153Z,97.64
2023-04-10T12:57:04.873Z,99.09
2023-04-10T12:58:18.252Z,99.90
2023-04-10T12:59:22.980Z,100.00
2023-04-10T13:00:26.034Z,100.00
2023-04-10T13:01:29.483Z,100.00
2023-04-10T13:02:32.687Z,100.00
2023-04-10T13:03:37.284Z,100.00
2023-04-10T13:04:42.409Z,100.00
2023-04-10T13:05:47.703Z,100.00
2023-04-10T13:06:53.118Z,100.00
2023-04-10T13:07:55.891Z,100.00
2023-04-10T13:08:59.397Z,100.00
2023-04-10T13:10:02.040Z,100.00
2023-04-10T13:11:06.304Z,100.00
2023-04-10T13:12:09.596Z,100.00
2023-04-10T13:13:14.650Z,100.00
2023-04-10T13:14:18.491Z,100.00
2023-04-10T13:15:21.987Z,100.00
2023-04-10T13:16:25.771Z,100.00
2023-04-10T13:17:31.119Z,100.00
2023-04-10T13:18:37.116Z,100.00
2023-04-10T13:19:40.381Z,100.00
2023-04-10T13:20:43.165Z,98.99
2023-04-10T13:21:47.919Z,99.15
2023-04-10T13:22:54.572Z,99.49
2023-04-10T13:23:57.545Z,96.27
2023-04-10T13:25:01.767Z,96.58
2023-04-10T13:26:09.670Z,95.05
2023-04-10T13:27:13.903Z,93.21
2023-04-10T13:28:21.877Z,96.79
2023-04-10T13:29:24.986Z,95.05
2023-04-10T13:30:28.916Z,93.69
2023-04-10T13:31:32.491Z,91.95
2023-04-10T13:32:37.561Z,91.50
2023-04-10T13:33:40.890Z,88.10
2023-04-10T13:34:46.884Z,92.34
2023-04-10T13:35:50.549Z,91.00
2023-04-10T13:36:54.376Z,91.82
2023-04-10T13:37:59.613Z,90.66
2023-04-10T13:39:02.913Z,88.22
2023-04-10T13:40:07.363Z,91.14
2023-04-10T13:41:11.172Z,90.92
2023-04-10T13:42:14.447Z,90.43
2023-04-10T13:43:19.541Z,92.44
2023-04-10T13:44:21.678Z,87.68
2023-04-10T13:45:25.642Z,87.91
2023-04-10T13:46:29.039Z,87.83
2023-04-10T13:47:35.791Z,87.32
2023-04-10T13:48:41.887Z,88.29
2023-04-10T13:49:47.682Z,87.66
2023-04-10T13:50:51.389Z,89.12
2023-04-10T13:51:54.893Z,89.48
2023-04-10T13:52:59.014Z,90.21
2023-04-10T13:54:04.656Z,90.90